sensor_id;sensor_type;location;lat;lon;timestamp;pressure;altitude;pressure_sealevel;temperature;humidity
66560;BME280;53413;49.878;8.142;2023-05-29T00:00:28;100145.03;;;12.25;100.00
66560;BME280;53413;49.878;8.142;2023-05-29T00:02:54;100143.72;;;12.15;100.00
66560;BME280;53413;49.878;8.142;2023-05-29T00:05:19;100136.38;;;12.03;100.00
66560;BME280;53413;49.878;8.142;2023-05-29T00:07:45;100141.91;;;11.95;100.00
66560;BME280;53413;49.878;8.142;2023-05-29T00:10:11;100142.09;;;11.90;100.00
66560;BME280;53413;49.878;8.142;2023-05-29T00:12:38;100143.22;;;11.84;100.00
66560;BME280;53413;49.878;8.142;2023-05-29T00:15:04;100151.47;;;11.75;100.00
66560;BME280;53413;49.878;8.142;2023-05-29T00:17:30;100151.00;;;11.65;100.00
66560;BME280;53413;49.878;8.142;2023-05-29T00:19:59;100153.06;;;11.57;100.00
66560;BME280;53413;49.878;8.142;2023-05-29T00:22:26;100150.81;;;11.48;100.00
66560;BME280;53413;49.878;8.142;2023-05-29T00:24:52;100153.88;;;11.37;100.00
66560;BME280;53413;49.878;8.142;2023-05-29T00:27:17;100150.63;;;11.30;100.00
66560;BME280;53413;49.878;8.142;2023-05-29T00:29:43;100139.59;;;11.22;100.00
66560;BME280;53413;49.878;8.142;2023-05-29T00:32:09;100139.81;;;11.16;100.00
66560;BME280;53413;49.878;8.142;2023-05-29T00:34:35;100142.78;;;11.06;100.00
66560;BME280;53413;49.878;8.142;2023-05-29T00:37:00;100140.44;;;10.99;100.00
66560;BME280;53413;49.878;8.142;2023-05-29T00:39:26;100136.28;;;10.93;100.00
66560;BME280;53413;49.878;8.142;2023-05-29T00:41:52;100139.81;;;10.92;100.00
66560;BME280;53413;49.878;8.142;2023-05-29T00:44:21;100139.00;;;10.91;100.00
66560;BME280;53413;49.878;8.142;2023-05-29T00:46:48;100134.75;;;10.87;100.00
66560;BME280;53413;49.878;8.142;2023-05-29T00:49:15;100138.47;;;10.82;100.00
66560;BME280;53413;49.878;8.142;2023-05-29T00:51:42;100141.25;;;10.77;100.00
66560;BME280;53413;49.878;8.142;2023-05-29T00:54:12;100140.53;;;10.73;100.00
66560;BME280;53413;49.878;8.142;2023-05-29T00:56:38;100131.06;;;10.69;100.00
66560;BME280;53413;49.878;8.142;2023-05-29T00:59:05;100136.41;;;10.66;100.00
66560;BME280;53413;49.878;8.142;2023-05-29T01:01:31;100133.13;;;10.61;100.00
66560;BME280;53413;49.878;8.142;2023-05-29T01:03:57;100144.59;;;10.57;100.00
66560;BME280;53413;49.878;8.142;2023-05-29T01:06:24;100137.72;;;10.54;100.00
66560;BME280;53413;49.878;8.142;2023-05-29T01:08:50;100136.06;;;10.52;100.00
66560;BME280;53413;49.878;8.142;2023-05-29T01:11:32;100139.25;;;10.60;100.00
66560;BME280;53413;49.878;8.142;2023-05-29T01:14:06;100138.41;;;10.59;100.00
66560;BME280;53413;49.878;8.142;2023-05-29T01:16:42;100142.00;;;10.57;100.00
66560;BME280;53413;49.878;8.142;2023-05-29T01:19:26;100138.63;;;10.53;100.00
66560;BME280;53413;49.878;8.142;2023-05-29T01:24:55;100136.97;;;10.51;100.00
66560;BME280;53413;49.878;8.142;2023-05-29T01:27:24;100131.75;;;10.51;100.00
66560;BME280;53413;49.878;8.142;2023-05-29T01:29:51;100134.47;;;10.47;100.00
66560;BME280;53413;49.878;8.142;2023-05-29T01:32:17;100126.72;;;10.44;100.00
66560;BME280;53413;49.878;8.142;2023-05-29T01:34:42;100129.44;;;10.41;100.00
66560;BME280;53413;49.878;8.142;2023-05-29T01:37:08;100124.31;;;10.38;100.00
66560;BME280;53413;49.878;8.142;2023-05-29T01:39:33;100131.34;;;10.36;100.00
66560;BME280;53413;49.878;8.142;2023-05-29T01:42:00;100131.44;;;10.33;100.00
66560;BME280;53413;49.878;8.142;2023-05-29T01:44:26;100132.31;;;10.34;100.00
66560;BME280;53413;49.878;8.142;2023-05-29T01:46:54;100138.41;;;10.34;100.00
66560;BME280;53413;49.878;8.142;2023-05-29T01:49:20;100130.44;;;10.37;100.00
66560;BME280;53413;49.878;8.142;2023-05-29T01:51:47;100127.75;;;10.40;100.00
66560;BME280;53413;49.878;8.142;2023-05-29T01:54:12;100124.19;;;10.41;100.00
66560;BME280;53413;49.878;8.142;2023-05-29T01:56:38;100134.66;;;10.41;100.00
66560;BME280;53413;49.878;8.142;2023-05-29T01:59:04;100134.81;;;10.37;100.00
66560;BME280;53413;49.878;8.142;2023-05-29T02:01:29;100134.13;;;10.31;100.00
66560;BME280;53413;49.878;8.142;2023-05-29T02:03:54;100134.31;;;10.25;100.00
66560;BME280;53413;49.878;8.142;2023-05-29T02:06:20;100124.91;;;10.20;100.00
66560;BME280;53413;49.878;8.142;2023-05-29T02:08:46;100125.91;;;10.17;100.00
66560;BME280;53413;49.878;8.142;2023-05-29T02:11:12;100123.34;;;10.15;100.00
66560;BME280;53413;49.878;8.142;2023-05-29T02:13:37;100126.91;;;10.13;100.00
66560;BME280;53413;49.878;8.142;2023-05-29T02:16:03;100120.09;;;10.07;100.00
66560;BME280;53413;49.878;8.142;2023-05-29T02:18:28;100118.53;;;10.03;100.00
66560;BME280;53413;49.878;8.142;2023-05-29T02:20:53;100120.34;;;10.01;100.00
66560;BME280;53413;49.878;8.142;2023-05-29T02:23:19;100118.63;;;10.00;100.00
66560;BME280;53413;49.878;8.142;2023-05-29T02:25:45;100122.25;;;9.96;100.00
66560;BME280;53413;49.878;8.142;2023-05-29T02:28:10;100122.41;;;9.91;100.00
66560;BME280;53413;49.878;8.142;2023-05-29T02:30:36;100120.75;;;9.89;100.00
66560;BME280;53413;49.878;8.142;2023-05-29T02:33:01;100117.38;;;9.85;100.00
66560;BME280;53413;49.878;8.142;2023-05-29T02:35:27;100114.00;;;9.81;100.00
66560;BME280;53413;49.878;8.142;2023-05-29T02:37:52;100118.44;;;9.79;100.00
66560;BME280;53413;49.878;8.142;2023-05-29T02:40:18;100115.94;;;9.76;100.00
66560;BME280;53413;49.878;8.142;2023-05-29T02:42:44;100116.03;;;9.73;100.00
66560;BME280;53413;49.878;8.142;2023-05-29T02:45:10;100116.25;;;9.67;100.00
66560;BME280;53413;49.878;8.142;2023-05-29T02:47:36;100115.56;;;9.60;100.00
66560;BME280;53413;49.878;8.142;2023-05-29T02:50:02;100121.88;;;9.54;100.00
66560;BME280;53413;49.878;8.142;2023-05-29T02:52:28;100116.81;;;9.48;100.00
66560;BME280;53413;49.878;8.142;2023-05-29T02:54:53;100119.63;;;9.42;100.00
66560;BME280;53413;49.878;8.142;2023-05-29T02:57:20;100119.72;;;9.39;100.00
66560;BME280;53413;49.878;8.142;2023-05-29T02:59:45;100119.78;;;9.37;100.00
66560;BME280;53413;49.878;8.142;2023-05-29T03:02:11;100116.38;;;9.35;100.00
66560;BME280;53413;49.878;8.142;2023-05-29T03:04:36;100119.91;;;9.33;100.00
66560;BME280;53413;49.878;8.142;2023-05-29T03:07:01;100120.88;;;9.30;100.00
66560;BME280;53413;49.878;8.142;2023-05-29T03:09:27;100110.47;;;9.29;100.00
66560;BME280;53413;49.878;8.142;2023-05-29T03:11:52;100111.47;;;9.24;100.00
66560;BME280;53413;49.878;8.142;2023-05-29T03:14:18;100114.16;;;9.21;100.00
66560;BME280;53413;49.878;8.142;2023-05-29T03:16:44;100116.06;;;9.16;100.00
66560;BME280;53413;49.878;8.142;2023-05-29T03:19:10;100110.94;;;9.13;100.00
66560;BME280;53413;49.878;8.142;2023-05-29T03:21:35;100114.53;;;9.09;100.00
66560;BME280;53413;49.878;8.142;2023-05-29T03:24:01;100116.38;;;9.05;100.00
66560;BME280;53413;49.878;8.142;2023-05-29T03:26:28;100114.72;;;9.03;100.00
66560;BME280;53413;49.878;8.142;2023-05-29T03:28:53;100120.03;;;9.01;100.00
66560;BME280;53413;49.878;8.142;2023-05-29T03:31:19;100134.00;;;9.00;100.00
66560;BME280;53413;49.878;8.142;2023-05-29T03:33:44;100134.88;;;8.99;100.00
66560;BME280;53413;49.878;8.142;2023-05-29T03:36:10;100132.13;;;9.04;100.00
66560;BME280;53413;49.878;8.142;2023-05-29T03:38:36;100139.78;;;9.10;100.00
66560;BME280;53413;49.878;8.142;2023-05-29T03:41:01;100131.84;;;9.13;100.00
66560;BME280;53413;49.878;8.142;2023-05-29T03:43:26;100128.34;;;9.14;100.00
66560;BME280;53413;49.878;8.142;2023-05-29T03:45:52;100139.63;;;9.15;100.00
66560;BME280;53413;49.878;8.142;2023-05-29T03:48:17;100144.84;;;9.15;100.00
66560;BME280;53413;49.878;8.142;2023-05-29T03:50:45;100143.06;;;9.17;100.00
66560;BME280;53413;49.878;8.142;2023-05-29T03:53:10;100149.03;;;9.20;100.00
66560;BME280;53413;49.878;8.142;2023-05-29T03:55:35;100152.47;;;9.22;100.00
66560;BME280;53413;49.878;8.142;2023-05-29T03:58:01;100151.50;;;9.27;100.00
66560;BME280;53413;49.878;8.142;2023-05-29T04:00:26;100154.84;;;9.32;100.00
66560;BME280;53413;49.878;8.142;2023-05-29T04:02:51;100165.09;;;9.38;100.00
66560;BME280;53413;49.878;8.142;2023-05-29T04:05:17;100170.13;;;9.44;100.00
66560;BME280;53413;49.878;8.142;2023-05-29T04:07:42;100173.41;;;9.51;100.00
66560;BME280;53413;49.878;8.142;2023-05-29T04:10:08;100180.16;;;9.58;100.00
66560;BME280;53413;49.878;8.142;2023-05-29T04:12:34;100182.56;;;9.66;100.00
66560;BME280;53413;49.878;8.142;2023-05-29T04:14:59;100175.38;;;9.73;100.00
66560;BME280;53413;49.878;8.142;2023-05-29T04:17:25;100182.91;;;9.82;100.00
66560;BME280;53413;49.878;8.142;2023-05-29T04:19:51;100181.75;;;9.91;100.00
66560;BME280;53413;49.878;8.142;2023-05-29T04:22:16;100184.06;;;10.00;100.00
66560;BME280;53413;49.878;8.142;2023-05-29T04:24:41;100188.91;;;10.12;100.00
66560;BME280;53413;49.878;8.142;2023-05-29T04:27:10;100197.19;;;10.25;100.00
66560;BME280;53413;49.878;8.142;2023-05-29T04:29:38;100200.28;;;10.37;100.00
66560;BME280;53413;49.878;8.142;2023-05-29T04:32:05;100201.69;;;10.49;100.00
66560;BME280;53413;49.878;8.142;2023-05-29T04:34:31;100199.53;;;10.60;100.00
66560;BME280;53413;49.878;8.142;2023-05-29T04:36:57;100203.47;;;10.72;100.00
66560;BME280;53413;49.878;8.142;2023-05-29T04:39:23;100210.84;;;10.86;100.00
66560;BME280;53413;49.878;8.142;2023-05-29T04:41:49;100213.03;;;10.98;100.00
66560;BME280;53413;49.878;8.142;2023-05-29T04:44:15;100212.44;;;11.14;100.00
66560;BME280;53413;49.878;8.142;2023-05-29T04:46:40;100223.25;;;11.30;100.00
66560;BME280;53413;49.878;8.142;2023-05-29T04:49:09;100221.72;;;11.46;100.00
66560;BME280;53413;49.878;8.142;2023-05-29T04:51:35;100234.25;;;11.62;100.00
66560;BME280;53413;49.878;8.142;2023-05-29T04:54:01;100225.78;;;11.77;100.00
66560;BME280;53413;49.878;8.142;2023-05-29T04:56:28;100230.34;;;11.94;100.00
66560;BME280;53413;49.878;8.142;2023-05-29T04:58:53;100230.53;;;12.12;100.00
66560;BME280;53413;49.878;8.142;2023-05-29T05:01:19;100238.59;;;12.29;100.00
66560;BME280;53413;49.878;8.142;2023-05-29T05:03:44;100238.78;;;12.45;100.00
66560;BME280;53413;49.878;8.142;2023-05-29T05:06:10;100242.50;;;12.62;100.00
66560;BME280;53413;49.878;8.142;2023-05-29T05:08:36;100243.50;;;12.78;100.00
66560;BME280;53413;49.878;8.142;2023-05-29T05:11:01;100249.81;;;12.95;100.00
66560;BME280;53413;49.878;8.142;2023-05-29T05:13:27;100240.16;;;13.15;100.00
66560;BME280;53413;49.878;8.142;2023-05-29T05:15:53;100242.03;;;13.32;100.00
66560;BME280;53413;49.878;8.142;2023-05-29T05:18:18;100247.41;;;13.49;100.00
66560;BME280;53413;49.878;8.142;2023-05-29T05:20:44;100252.72;;;13.67;100.00
66560;BME280;53413;49.878;8.142;2023-05-29T05:23:10;100252.78;;;13.84;100.00
66560;BME280;53413;49.878;8.142;2023-05-29T05:25:36;100250.81;;;14.07;100.00
66560;BME280;53413;49.878;8.142;2023-05-29T05:28:02;100255.00;;;14.29;100.00
66560;BME280;53413;49.878;8.142;2023-05-29T05:30:28;100244.16;;;14.53;100.00
66560;BME280;53413;49.878;8.142;2023-05-29T05:32:54;100250.00;;;14.77;100.00
66560;BME280;53413;49.878;8.142;2023-05-29T05:35:20;100245.97;;;15.03;100.00
66560;BME280;53413;49.878;8.142;2023-05-29T05:37:45;100251.31;;;15.35;100.00
66560;BME280;53413;49.878;8.142;2023-05-29T05:40:10;100252.06;;;17.36;98.10
66560;BME280;53413;49.878;8.142;2023-05-29T05:42:36;100241.75;;;22.76;69.85
66560;BME280;53413;49.878;8.142;2023-05-29T05:45:01;100238.13;;;27.22;50.77
66560;BME280;53413;49.878;8.142;2023-05-29T05:47:28;100254.38;;;30.53;40.88
66560;BME280;53413;49.878;8.142;2023-05-29T05:49:53;100254.38;;;30.53;40.88
66560;BME280;53413;49.878;8.142;2023-05-29T05:52:19;100263.97;;;34.21;34.78
66560;BME280;53413;49.878;8.142;2023-05-29T05:54:45;100268.34;;;35.94;30.81
66560;BME280;53413;49.878;8.142;2023-05-29T05:57:10;100264.13;;;36.93;29.08
66560;BME280;53413;49.878;8.142;2023-05-29T05:59:36;100272.38;;;37.61;28.60
66560;BME280;53413;49.878;8.142;2023-05-29T06:02:01;100266.63;;;38.47;27.18
66560;BME280;53413;49.878;8.142;2023-05-29T06:04:28;100263.91;;;39.23;25.85
66560;BME280;53413;49.878;8.142;2023-05-29T06:06:54;100260.22;;;40.05;24.74
66560;BME280;53413;49.878;8.142;2023-05-29T06:09:19;100264.03;;;40.55;23.57
66560;BME280;53413;49.878;8.142;2023-05-29T06:11:44;100268.31;;;40.85;24.13
66560;BME280;53413;49.878;8.142;2023-05-29T06:14:10;100267.34;;;40.96;23.36
66560;BME280;53413;49.878;8.142;2023-05-29T06:16:35;100262.47;;;41.48;23.15
66560;BME280;53413;49.878;8.142;2023-05-29T06:19:00;100271.13;;;42.17;22.79
66560;BME280;53413;49.878;8.142;2023-05-29T06:21:27;100266.75;;;42.58;21.75
66560;BME280;53413;49.878;8.142;2023-05-29T06:23:52;100267.31;;;42.23;21.82
66560;BME280;53413;49.878;8.142;2023-05-29T06:26:18;100277.94;;;42.04;21.70
66560;BME280;53413;49.878;8.142;2023-05-29T06:28:43;100269.63;;;41.98;22.47
66560;BME280;53413;49.878;8.142;2023-05-29T06:31:08;100269.41;;;42.86;21.27
66560;BME280;53413;49.878;8.142;2023-05-29T06:33:33;100269.28;;;43.18;21.11
66560;BME280;53413;49.878;8.142;2023-05-29T06:35:59;100265.13;;;43.21;21.17
66560;BME280;53413;49.878;8.142;2023-05-29T06:38:24;100261.94;;;42.06;21.50
66560;BME280;53413;49.878;8.142;2023-05-29T06:40:50;100256.81;;;41.32;21.92
66560;BME280;53413;49.878;8.142;2023-05-29T06:43:15;100260.41;;;41.55;21.64
66560;BME280;53413;49.878;8.142;2023-05-29T06:45:40;100266.69;;;41.28;21.84
66560;BME280;53413;49.878;8.142;2023-05-29T06:48:06;100268.16;;;41.14;22.11
66560;BME280;53413;49.878;8.142;2023-05-29T06:50:31;100259.63;;;41.37;22.06
66560;BME280;53413;49.878;8.142;2023-05-29T06:52:57;100255.97;;;41.87;21.34
66560;BME280;53413;49.878;8.142;2023-05-29T06:55:22;100265.25;;;42.03;21.21
66560;BME280;53413;49.878;8.142;2023-05-29T06:57:47;100262.47;;;41.70;21.64
66560;BME280;53413;49.878;8.142;2023-05-29T07:00:13;100263.69;;;41.57;21.77
66560;BME280;53413;49.878;8.142;2023-05-29T07:02:39;100263.88;;;42.38;21.08
66560;BME280;53413;49.878;8.142;2023-05-29T07:05:04;100253.00;;;43.22;20.29
66560;BME280;53413;49.878;8.142;2023-05-29T07:07:31;100266.09;;;42.41;21.18
66560;BME280;53413;49.878;8.142;2023-05-29T07:09:56;100262.72;;;41.19;21.40
66560;BME280;53413;49.878;8.142;2023-05-29T07:12:22;100268.06;;;40.30;21.98
66560;BME280;53413;49.878;8.142;2023-05-29T07:14:48;100267.88;;;40.37;22.00
66560;BME280;53413;49.878;8.142;2023-05-29T07:17:14;100263.22;;;40.37;22.47
66560;BME280;53413;49.878;8.142;2023-05-29T07:19:40;100267.53;;;40.50;21.94
66560;BME280;53413;49.878;8.142;2023-05-29T07:22:06;100268.06;;;40.86;21.82
66560;BME280;53413;49.878;8.142;2023-05-29T07:24:31;100270.84;;;41.58;21.41
66560;BME280;53413;49.878;8.142;2023-05-29T07:26:56;100276.97;;;42.58;20.45
66560;BME280;53413;49.878;8.142;2023-05-29T07:29:22;100273.91;;;43.13;20.18
66560;BME280;53413;49.878;8.142;2023-05-29T07:31:49;100278.81;;;43.69;19.72
66560;BME280;53413;49.878;8.142;2023-05-29T07:34:14;100286.59;;;42.60;19.59
66560;BME280;53413;49.878;8.142;2023-05-29T07:36:56;100287.66;;;42.17;20.05
66560;BME280;53413;49.878;8.142;2023-05-29T07:39:22;100288.16;;;41.31;21.11
66560;BME280;53413;49.878;8.142;2023-05-29T07:41:47;100289.69;;;41.22;20.98
66560;BME280;53413;49.878;8.142;2023-05-29T07:44:13;100280.56;;;41.16;21.25
66560;BME280;53413;49.878;8.142;2023-05-29T07:46:38;100282.91;;;41.79;20.72
66560;BME280;53413;49.878;8.142;2023-05-29T07:49:03;100277.00;;;42.25;20.55
66560;BME280;53413;49.878;8.142;2023-05-29T07:51:29;100293.78;;;42.67;20.35
66560;BME280;53413;49.878;8.142;2023-05-29T07:53:54;100295.00;;;42.06;20.41
66560;BME280;53413;49.878;8.142;2023-05-29T07:56:19;100289.22;;;42.83;19.86
66560;BME280;53413;49.878;8.142;2023-05-29T07:58:46;100298.69;;;43.71;19.65
66560;BME280;53413;49.878;8.142;2023-05-29T08:01:11;100289.72;;;43.38;19.46
66560;BME280;53413;49.878;8.142;2023-05-29T08:03:37;100294.59;;;42.62;19.99
66560;BME280;53413;49.878;8.142;2023-05-29T08:06:02;100296.06;;;41.72;20.37
66560;BME280;53413;49.878;8.142;2023-05-29T08:08:28;100289.38;;;40.79;21.35
66560;BME280;53413;49.878;8.142;2023-05-29T08:10:53;100296.09;;;41.50;20.69
66560;BME280;53413;49.878;8.142;2023-05-29T08:13:19;100296.84;;;41.67;20.46
66560;BME280;53413;49.878;8.142;2023-05-29T08:15:44;100299.84;;;41.93;20.31
66560;BME280;53413;49.878;8.142;2023-05-29T08:18:10;100299.84;;;42.64;19.79
66560;BME280;53413;49.878;8.142;2023-05-29T08:20:36;100299.94;;;42.04;20.24
66560;BME280;53413;49.878;8.142;2023-05-29T08:23:01;100299.56;;;42.65;20.26
66560;BME280;53413;49.878;8.142;2023-05-29T08:25:26;100296.22;;;43.06;19.46
66560;BME280;53413;49.878;8.142;2023-05-29T08:27:51;100295.38;;;43.79;19.22
66560;BME280;53413;49.878;8.142;2023-05-29T08:30:17;100295.34;;;43.85;19.50
66560;BME280;53413;49.878;8.142;2023-05-29T08:32:42;100296.94;;;43.55;19.03
66560;BME280;53413;49.878;8.142;2023-05-29T08:35:08;100293.97;;;43.92;18.94
66560;BME280;53413;49.878;8.142;2023-05-29T08:37:33;100286.81;;;44.43;19.17
66560;BME280;53413;49.878;8.142;2023-05-29T08:39:58;100296.75;;;44.18;18.55
66560;BME280;53413;49.878;8.142;2023-05-29T08:42:29;100284.91;;;44.07;18.53
66560;BME280;53413;49.878;8.142;2023-05-29T08:45:02;100295.66;;;44.24;18.80
66560;BME280;53413;49.878;8.142;2023-05-29T08:47:32;100295.84;;;43.56;18.76
66560;BME280;53413;49.878;8.142;2023-05-29T08:50:00;100285.06;;;43.44;18.98
66560;BME280;53413;49.878;8.142;2023-05-29T08:52:26;100293.63;;;43.52;18.92
66560;BME280;53413;49.878;8.142;2023-05-29T08:54:53;100279.34;;;44.49;18.43
66560;BME280;53413;49.878;8.142;2023-05-29T08:57:19;100282.94;;;44.59;18.57
66560;BME280;53413;49.878;8.142;2023-05-29T08:59:46;100284.06;;;43.86;18.49
66560;BME280;53413;49.878;8.142;2023-05-29T09:02:14;100298.38;;;43.73;19.00
66560;BME280;53413;49.878;8.142;2023-05-29T09:04:43;100289.47;;;43.45;19.28
66560;BME280;53413;49.878;8.142;2023-05-29T09:07:18;100281.59;;;44.16;18.45
66560;BME280;53413;49.878;8.142;2023-05-29T09:09:47;100285.13;;;44.52;18.27
66560;BME280;53413;49.878;8.142;2023-05-29T09:12:13;100282.66;;;43.99;18.57
66560;BME280;53413;49.878;8.142;2023-05-29T09:14:41;100275.47;;;43.98;18.67
66560;BME280;53413;49.878;8.142;2023-05-29T09:17:09;100282.38;;;43.75;18.93
66560;BME280;53413;49.878;8.142;2023-05-29T09:19:35;100287.66;;;44.12;18.50
66560;BME280;53413;49.878;8.142;2023-05-29T09:22:12;100300.88;;;43.90;18.28
66560;BME280;53413;49.878;8.142;2023-05-29T09:24:40;100290.75;;;43.16;18.27
66560;BME280;53413;49.878;8.142;2023-05-29T09:27:06;100280.38;;;43.49;18.98
66560;BME280;53413;49.878;8.142;2023-05-29T09:29:43;100290.97;;;44.04;18.61
66560;BME280;53413;49.878;8.142;2023-05-29T09:32:14;100282.09;;;44.54;18.42
66560;BME280;53413;49.878;8.142;2023-05-29T09:34:42;100285.44;;;44.15;18.58
66560;BME280;53413;49.878;8.142;2023-05-29T09:37:08;100288.19;;;43.99;19.06
66560;BME280;53413;49.878;8.142;2023-05-29T09:39:44;100289.00;;;43.84;19.10
66560;BME280;53413;49.878;8.142;2023-05-29T09:42:10;100286.03;;;44.06;19.21
66560;BME280;53413;49.878;8.142;2023-05-29T09:44:36;100289.81;;;43.64;19.07
66560;BME280;53413;49.878;8.142;2023-05-29T09:47:01;100285.84;;;42.33;20.25
66560;BME280;53413;49.878;8.142;2023-05-29T09:49:27;100282.66;;;42.46;20.01
66560;BME280;53413;49.878;8.142;2023-05-29T09:51:56;100286.25;;;42.14;20.05
66560;BME280;53413;49.878;8.142;2023-05-29T09:54:21;100285.06;;;42.05;19.89
66560;BME280;53413;49.878;8.142;2023-05-29T09:56:47;100283.38;;;41.21;20.91
66560;BME280;53413;49.878;8.142;2023-05-29T09:59:15;100281.09;;;40.74;21.27
66560;BME280;53413;49.878;8.142;2023-05-29T10:01:43;100278.22;;;40.46;21.18
66560;BME280;53413;49.878;8.142;2023-05-29T10:04:12;100275.06;;;40.38;20.84
66560;BME280;53413;49.878;8.142;2023-05-29T10:06:41;100276.53;;;40.85;21.18
66560;BME280;53413;49.878;8.142;2023-05-29T10:09:11;100286.41;;;40.81;20.96
66560;BME280;53413;49.878;8.142;2023-05-29T10:11:43;100279.50;;;39.93;21.69
66560;BME280;53413;49.878;8.142;2023-05-29T10:14:11;100276.41;;;39.60;22.29
66560;BME280;53413;49.878;8.142;2023-05-29T10:16:41;100274.94;;;36.81;24.18
66560;BME280;53413;49.878;8.142;2023-05-29T10:19:12;100271.72;;;34.11;26.50
66560;BME280;53413;49.878;8.142;2023-05-29T10:21:41;100269.94;;;32.29;28.36
66560;BME280;53413;49.878;8.142;2023-05-29T10:24:08;100276.75;;;31.00;30.24
66560;BME280;53413;49.878;8.142;2023-05-29T10:26:37;100266.19;;;29.90;31.12
66560;BME280;53413;49.878;8.142;2023-05-29T10:37:46;100266.78;;;27.99;34.36
66560;BME280;53413;49.878;8.142;2023-05-29T10:40:14;100263.41;;;27.80;36.20
66560;BME280;53413;49.878;8.142;2023-05-29T10:42:48;100280.50;;;27.62;35.49
66560;BME280;53413;49.878;8.142;2023-05-29T10:53:06;100261.81;;;27.18;35.41
66560;BME280;53413;49.878;8.142;2023-05-29T10:55:39;100271.28;;;26.78;35.73
66560;BME280;53413;49.878;8.142;2023-05-29T10:58:25;100279.53;;;27.02;35.94
66560;BME280;53413;49.878;8.142;2023-05-29T11:00:52;100275.13;;;26.93;35.44
66560;BME280;53413;49.878;8.142;2023-05-29T11:03:30;100275.63;;;26.70;35.36
66560;BME280;53413;49.878;8.142;2023-05-29T11:05:56;100267.38;;;26.46;35.65
66560;BME280;53413;49.878;8.142;2023-05-29T11:08:54;100268.56;;;26.43;36.06
66560;BME280;53413;49.878;8.142;2023-05-29T11:13:53;100282.94;;;26.34;34.72
66560;BME280;53413;49.878;8.142;2023-05-29T11:18:52;100278.69;;;26.31;34.84
66560;BME280;53413;49.878;8.142;2023-05-29T11:24:03;100262.50;;;26.23;33.94
66560;BME280;53413;49.878;8.142;2023-05-29T11:26:29;100266.47;;;26.01;33.41
66560;BME280;53413;49.878;8.142;2023-05-29T11:29:03;100270.06;;;25.91;33.53
66560;BME280;53413;49.878;8.142;2023-05-29T11:31:32;100278.44;;;25.88;33.64
66560;BME280;53413;49.878;8.142;2023-05-29T11:34:00;100263.94;;;25.99;33.30
66560;BME280;53413;49.878;8.142;2023-05-29T11:36:27;100270.06;;;26.09;33.96
66560;BME280;53413;49.878;8.142;2023-05-29T11:38:53;100265.03;;;26.24;32.61
66560;BME280;53413;49.878;8.142;2023-05-29T11:41:19;100254.91;;;26.18;33.35
66560;BME280;53413;49.878;8.142;2023-05-29T11:43:45;100264.81;;;26.18;33.35
66560;BME280;53413;49.878;8.142;2023-05-29T11:46:20;100260.22;;;26.10;32.72
66560;BME280;53413;49.878;8.142;2023-05-29T11:48:46;100248.53;;;26.01;32.38
66560;BME280;53413;49.878;8.142;2023-05-29T11:51:12;100251.69;;;25.96;32.88
66560;BME280;53413;49.878;8.142;2023-05-29T11:53:40;100250.81;;;25.96;33.67
66560;BME280;53413;49.878;8.142;2023-05-29T11:56:07;100265.16;;;26.05;33.56
66560;BME280;53413;49.878;8.142;2023-05-29T11:58:33;100258.81;;;26.06;33.35
66560;BME280;53413;49.878;8.142;2023-05-29T12:00:59;100270.81;;;26.11;33.48
66560;BME280;53413;49.878;8.142;2023-05-29T12:03:24;100262.66;;;26.03;33.19
66560;BME280;53413;49.878;8.142;2023-05-29T12:05:50;100258.94;;;26.04;33.28
66560;BME280;53413;49.878;8.142;2023-05-29T12:08:23;100259.50;;;26.08;34.45
66560;BME280;53413;49.878;8.142;2023-05-29T12:10:51;100266.50;;;26.19;35.06
66560;BME280;53413;49.878;8.142;2023-05-29T12:13:19;100256.50;;;26.29;34.52
66560;BME280;53413;49.878;8.142;2023-05-29T12:15:45;100262.50;;;26.23;33.10
66560;BME280;53413;49.878;8.142;2023-05-29T12:18:12;100248.16;;;26.14;33.57
66560;BME280;53413;49.878;8.142;2023-05-29T12:20:37;100250.72;;;26.16;33.75
66560;BME280;53413;49.878;8.142;2023-05-29T12:23:02;100248.75;;;26.08;34.33
66560;BME280;53413;49.878;8.142;2023-05-29T12:25:28;100251.28;;;26.09;34.03
66560;BME280;53413;49.878;8.142;2023-05-29T12:27:55;100247.63;;;26.10;35.78
66560;BME280;53413;49.878;8.142;2023-05-29T12:30:22;100247.34;;;26.14;35.66
66560;BME280;53413;49.878;8.142;2023-05-29T12:32:49;100250.00;;;26.14;34.37
66560;BME280;53413;49.878;8.142;2023-05-29T12:37:54;100245.09;;;26.27;34.05
66560;BME280;53413;49.878;8.142;2023-05-29T12:40:23;100256.50;;;26.29;35.12
66560;BME280;53413;49.878;8.142;2023-05-29T12:42:58;100240.38;;;26.29;35.96
66560;BME280;53413;49.878;8.142;2023-05-29T12:45:28;100235.34;;;26.26;34.59
66560;BME280;53413;49.878;8.142;2023-05-29T12:47:59;100232.44;;;26.19;35.38
66560;BME280;53413;49.878;8.142;2023-05-29T12:50:28;100241.78;;;26.33;35.64
66560;BME280;53413;49.878;8.142;2023-05-29T12:55:31;100237.56;;;26.31;34.63
66560;BME280;53413;49.878;8.142;2023-05-29T12:57:58;100240.78;;;26.34;34.01
66560;BME280;53413;49.878;8.142;2023-05-29T13:00:24;100226.19;;;26.37;35.83
66560;BME280;53413;49.878;8.142;2023-05-29T13:02:50;100232.75;;;26.42;34.62
66560;BME280;53413;49.878;8.142;2023-05-29T13:05:16;100223.66;;;26.35;34.98
66560;BME280;53413;49.878;8.142;2023-05-29T13:07:44;100226.69;;;26.40;34.96
66560;BME280;53413;49.878;8.142;2023-05-29T13:10:09;100217.03;;;26.48;35.22
66560;BME280;53413;49.878;8.142;2023-05-29T13:12:35;100218.41;;;26.52;34.42
66560;BME280;53413;49.878;8.142;2023-05-29T13:15:01;100223.13;;;26.58;34.33
66560;BME280;53413;49.878;8.142;2023-05-29T13:17:26;100220.63;;;26.56;34.86